sensor_id;sensor_type;location;lat;lon;timestamp;P1;durP1;ratioP1;P2;durP2;ratioP2
17983;SDS011;9117;52.420;20.728;2022-12-18T00:01:56;51.97;;;19.03;;
17983;SDS011;9117;52.420;20.728;2022-12-18T00:04:25;53.17;;;19.53;;
17983;SDS011;9117;52.420;20.728;2022-12-18T00:06:54;52.67;;;18.80;;
17983;SDS011;9117;52.420;20.728;2022-12-18T00:09:22;45.40;;;16.17;;
17983;SDS011;9117;52.420;20.728;2022-12-18T00:12:04;54.87;;;20.60;;
17983;SDS011;9117;52.420;20.728;2022-12-18T00:14:44;54.47;;;18.97;;
17983;SDS011;9117;52.420;20.728;2022-12-18T00:17:13;58.93;;;19.20;;
17983;SDS011;9117;52.420;20.728;2022-12-18T00:19:41;43.97;;;16.60;;
17983;SDS011;9117;52.420;20.728;2022-12-18T00:22:09;48.63;;;18.60;;
17983;SDS011;9117;52.420;20.728;2022-12-18T00:24:37;49.97;;;17.27;;
17983;SDS011;9117;52.420;20.728;2022-12-18T00:27:05;51.47;;;17.13;;
17983;SDS011;9117;52.420;20.728;2022-12-18T00:29:33;53.73;;;17.83;;
17983;SDS011;9117;52.420;20.728;2022-12-18T00:32:01;45.83;;;16.57;;
17983;SDS011;9117;52.420;20.728;2022-12-18T00:34:31;55.23;;;18.93;;
17983;SDS011;9117;52.420;20.728;2022-12-18T00:36:59;50.63;;;17.83;;
17983;SDS011;9117;52.420;20.728;2022-12-18T00:39:27;48.73;;;18.20;;
17983;SDS011;9117;52.420;20.728;2022-12-18T00:41:55;49.63;;;18.50;;
17983;SDS011;9117;52.420;20.728;2022-12-18T00:44:41;47.77;;;17.00;;
17983;SDS011;9117;52.420;20.728;2022-12-18T00:47:09;57.97;;;18.67;;
17983;SDS011;9117;52.420;20.728;2022-12-18T00:49:38;53.73;;;17.07;;
17983;SDS011;9117;52.420;20.728;2022-12-18T00:52:06;49.10;;;17.83;;
17983;SDS011;9117;52.420;20.728;2022-12-18T00:54:34;39.93;;;13.73;;
17983;SDS011;9117;52.420;20.728;2022-12-18T00:57:02;46.20;;;17.10;;
17983;SDS011;9117;52.420;20.728;2022-12-18T00:59:30;36.30;;;14.13;;
17983;SDS011;9117;52.420;20.728;2022-12-18T01:01:58;44.50;;;16.77;;
17983;SDS011;9117;52.420;20.728;2022-12-18T01:04:26;42.33;;;15.43;;
17983;SDS011;9117;52.420;20.728;2022-12-18T01:06:56;51.53;;;17.07;;
17983;SDS011;9117;52.420;20.728;2022-12-18T01:09:24;50.33;;;17.57;;
17983;SDS011;9117;52.420;20.728;2022-12-18T01:11:52;53.80;;;18.17;;
17983;SDS011;9117;52.420;20.728;2022-12-18T01:14:20;51.07;;;17.00;;
17983;SDS011;9117;52.420;20.728;2022-12-18T01:16:48;47.40;;;15.53;;
17983;SDS011;9117;52.420;20.728;2022-12-18T01:19:16;47.67;;;16.47;;
17983;SDS011;9117;52.420;20.728;2022-12-18T01:21:44;48.70;;;13.83;;
17983;SDS011;9117;52.420;20.728;2022-12-18T01:24:14;51.27;;;15.60;;
17983;SDS011;9117;52.420;20.728;2022-12-18T01:26:42;43.10;;;14.03;;
17983;SDS011;9117;52.420;20.728;2022-12-18T01:29:10;48.33;;;15.70;;
17983;SDS011;9117;52.420;20.728;2022-12-18T01:31:38;52.43;;;16.80;;
17983;SDS011;9117;52.420;20.728;2022-12-18T01:34:06;48.83;;;15.87;;
17983;SDS011;9117;52.420;20.728;2022-12-18T01:36:35;54.27;;;17.70;;
17983;SDS011;9117;52.420;20.728;2022-12-18T01:39:05;56.80;;;19.03;;
17983;SDS011;9117;52.420;20.728;2022-12-18T01:41:37;55.30;;;17.90;;
17983;SDS011;9117;52.420;20.728;2022-12-18T01:47:25;47.80;;;15.87;;
17983;SDS011;9117;52.420;20.728;2022-12-18T01:49:57;54.43;;;18.03;;
17983;SDS011;9117;52.420;20.728;2022-12-18T01:52:28;54.50;;;19.87;;
17983;SDS011;9117;52.420;20.728;2022-12-18T01:54:58;51.37;;;16.03;;
17983;SDS011;9117;52.420;20.728;2022-12-18T01:57:29;48.80;;;16.50;;
17983;SDS011;9117;52.420;20.728;2022-12-18T01:59:59;47.93;;;16.60;;
17983;SDS011;9117;52.420;20.728;2022-12-18T02:02:29;37.87;;;15.27;;
17983;SDS011;9117;52.420;20.728;2022-12-18T02:04:58;51.40;;;17.27;;
17983;SDS011;9117;52.420;20.728;2022-12-18T02:07:29;54.07;;;17.97;;
17983;SDS011;9117;52.420;20.728;2022-12-18T02:10:10;42.00;;;13.80;;
17983;SDS011;9117;52.420;20.728;2022-12-18T02:12:45;40.10;;;14.87;;
17983;SDS011;9117;52.420;20.728;2022-12-18T02:15:19;51.57;;;17.10;;
17983;SDS011;9117;52.420;20.728;2022-12-18T02:17:55;47.77;;;15.40;;
17983;SDS011;9117;52.420;20.728;2022-12-18T02:20:27;51.20;;;17.23;;
17983;SDS011;9117;52.420;20.728;2022-12-18T02:23:05;43.57;;;15.17;;
17983;SDS011;9117;52.420;20.728;2022-12-18T02:26:00;52.33;;;15.37;;
17983;SDS011;9117;52.420;20.728;2022-12-18T02:28:35;39.23;;;15.10;;
17983;SDS011;9117;52.420;20.728;2022-12-18T02:31:08;42.73;;;13.60;;
17983;SDS011;9117;52.420;20.728;2022-12-18T02:33:41;44.70;;;13.63;;
17983;SDS011;9117;52.420;20.728;2022-12-18T02:36:12;44.20;;;13.47;;
17983;SDS011;9117;52.420;20.728;2022-12-18T02:38:42;41.27;;;13.20;;
17983;SDS011;9117;52.420;20.728;2022-12-18T02:41:13;39.03;;;13.70;;
17983;SDS011;9117;52.420;20.728;2022-12-18T02:43:45;39.73;;;13.13;;
17983;SDS011;9117;52.420;20.728;2022-12-18T02:46:25;40.13;;;13.67;;
17983;SDS011;9117;52.420;20.728;2022-12-18T02:49:01;37.83;;;13.43;;
17983;SDS011;9117;52.420;20.728;2022-12-18T02:51:42;41.17;;;14.57;;
17983;SDS011;9117;52.420;20.728;2022-12-18T02:54:18;34.77;;;13.77;;
17983;SDS011;9117;52.420;20.728;2022-12-18T02:56:58;40.00;;;14.20;;
17983;SDS011;9117;52.420;20.728;2022-12-18T02:59:37;30.80;;;12.87;;
17983;SDS011;9117;52.420;20.728;2022-12-18T03:02:10;39.47;;;14.30;;
17983;SDS011;9117;52.420;20.728;2022-12-18T03:04:47;33.80;;;12.70;;
17983;SDS011;9117;52.420;20.728;2022-12-18T03:07:19;44.93;;;15.37;;
17983;SDS011;9117;52.420;20.728;2022-12-18T03:09:53;29.70;;;11.00;;
17983;SDS011;9117;52.420;20.728;2022-12-18T03:12:24;37.07;;;13.57;;
17983;SDS011;9117;52.420;20.728;2022-12-18T03:14:58;36.13;;;13.13;;
17983;SDS011;9117;52.420;20.728;2022-12-18T03:17:30;32.87;;;11.10;;
17983;SDS011;9117;52.420;20.728;2022-12-18T03:20:00;33.87;;;12.50;;
17983;SDS011;9117;52.420;20.728;2022-12-18T03:22:33;33.40;;;11.63;;
17983;SDS011;9117;52.420;20.728;2022-12-18T03:25:04;28.83;;;11.27;;
17983;SDS011;9117;52.420;20.728;2022-12-18T03:27:38;36.77;;;10.87;;
17983;SDS011;9117;52.420;20.728;2022-12-18T03:30:11;35.00;;;11.43;;
17983;SDS011;9117;52.420;20.728;2022-12-18T03:32:42;34.20;;;10.83;;
17983;SDS011;9117;52.420;20.728;2022-12-18T03:35:14;29.73;;;11.50;;
17983;SDS011;9117;52.420;20.728;2022-12-18T03:37:48;28.73;;;10.93;;
17983;SDS011;9117;52.420;20.728;2022-12-18T03:40:16;28.63;;;10.70;;
17983;SDS011;9117;52.420;20.728;2022-12-18T03:42:48;32.43;;;12.07;;
17983;SDS011;9117;52.420;20.728;2022-12-18T03:45:20;37.87;;;11.83;;
17983;SDS011;9117;52.420;20.728;2022-12-18T03:47:55;32.93;;;11.90;;
17983;SDS011;9117;52.420;20.728;2022-12-18T03:50:30;28.90;;;11.30;;
17983;SDS011;9117;52.420;20.728;2022-12-18T03:53:09;33.73;;;11.97;;
17983;SDS011;9117;52.420;20.728;2022-12-18T03:55:47;32.57;;;11.13;;
17983;SDS011;9117;52.420;20.728;2022-12-18T03:58:19;42.63;;;13.23;;
17983;SDS011;9117;52.420;20.728;2022-12-18T04:00:50;34.27;;;13.13;;
17983;SDS011;9117;52.420;20.728;2022-12-18T04:03:21;39.33;;;13.43;;
17983;SDS011;9117;52.420;20.728;2022-12-18T04:05:52;45.53;;;15.00;;
17983;SDS011;9117;52.420;20.728;2022-12-18T04:08:22;32.70;;;14.07;;
17983;SDS011;9117;52.420;20.728;2022-12-18T04:10:51;38.10;;;12.97;;
17983;SDS011;9117;52.420;20.728;2022-12-18T04:13:24;36.70;;;11.63;;
17983;SDS011;9117;52.420;20.728;2022-12-18T04:15:56;35.03;;;11.93;;
17983;SDS011;9117;52.420;20.728;2022-12-18T04:18:24;40.23;;;12.27;;
17983;SDS011;9117;52.420;20.728;2022-12-18T04:20:52;36.93;;;13.30;;
17983;SDS011;9117;52.420;20.728;2022-12-18T04:23:20;33.83;;;12.30;;
17983;SDS011;9117;52.420;20.728;2022-12-18T04:25:49;32.87;;;11.63;;
17983;SDS011;9117;52.420;20.728;2022-12-18T04:28:17;33.57;;;13.23;;
17983;SDS011;9117;52.420;20.728;2022-12-18T04:30:49;37.63;;;12.97;;
17983;SDS011;9117;52.420;20.728;2022-12-18T04:33:18;37.13;;;13.37;;
17983;SDS011;9117;52.420;20.728;2022-12-18T04:35:46;40.93;;;12.80;;
17983;SDS011;9117;52.420;20.728;2022-12-18T04:38:14;45.27;;;14.97;;
17983;SDS011;9117;52.420;20.728;2022-12-18T04:40:42;36.30;;;13.37;;
17983;SDS011;9117;52.420;20.728;2022-12-18T04:43:10;24.83;;;9.77;;
17983;SDS011;9117;52.420;20.728;2022-12-18T04:45:39;50.30;;;14.73;;
17983;SDS011;9117;52.420;20.728;2022-12-18T04:48:08;46.27;;;15.23;;
17983;SDS011;9117;52.420;20.728;2022-12-18T04:50:36;45.37;;;14.40;;
17983;SDS011;9117;52.420;20.728;2022-12-18T04:53:06;49.10;;;14.23;;
17983;SDS011;9117;52.420;20.728;2022-12-18T04:55:35;51.90;;;16.13;;
17983;SDS011;9117;52.420;20.728;2022-12-18T04:58:04;50.53;;;16.37;;
17983;SDS011;9117;52.420;20.728;2022-12-18T05:00:32;46.93;;;16.67;;
17983;SDS011;9117;52.420;20.728;2022-12-18T05:03:00;50.23;;;16.73;;
17983;SDS011;9117;52.420;20.728;2022-12-18T05:05:30;48.23;;;17.33;;
17983;SDS011;9117;52.420;20.728;2022-12-18T05:07:59;49.53;;;15.63;;
17983;SDS011;9117;52.420;20.728;2022-12-18T05:10:27;48.23;;;16.07;;
17983;SDS011;9117;52.420;20.728;2022-12-18T05:13:03;49.87;;;17.00;;
17983;SDS011;9117;52.420;20.728;2022-12-18T05:15:31;48.97;;;16.17;;
17983;SDS011;9117;52.420;20.728;2022-12-18T05:18:00;57.63;;;17.47;;
17983;SDS011;9117;52.420;20.728;2022-12-18T05:20:31;57.27;;;17.03;;
17983;SDS011;9117;52.420;20.728;2022-12-18T05:22:59;54.60;;;17.20;;
17983;SDS011;9117;52.420;20.728;2022-12-18T05:25:27;56.20;;;18.13;;
17983;SDS011;9117;52.420;20.728;2022-12-18T05:27:56;51.50;;;16.33;;
17983;SDS011;9117;52.420;20.728;2022-12-18T05:30:25;56.40;;;16.87;;
17983;SDS011;9117;52.420;20.728;2022-12-18T05:32:53;57.20;;;18.17;;
17983;SDS011;9117;52.420;20.728;2022-12-18T05:35:22;54.30;;;17.53;;
17983;SDS011;9117;52.420;20.728;2022-12-18T05:37:51;57.53;;;17.47;;
17983;SDS011;9117;52.420;20.728;2022-12-18T05:40:19;57.67;;;18.20;;
17983;SDS011;9117;52.420;20.728;2022-12-18T05:42:47;67.63;;;19.70;;
17983;SDS011;9117;52.420;20.728;2022-12-18T05:45:15;56.40;;;18.20;;
17983;SDS011;9117;52.420;20.728;2022-12-18T05:47:43;54.20;;;16.83;;
17983;SDS011;9117;52.420;20.728;2022-12-18T05:50:11;54.90;;;19.23;;
17983;SDS011;9117;52.420;20.728;2022-12-18T05:52:39;60.40;;;19.90;;
17983;SDS011;9117;52.420;20.728;2022-12-18T05:55:09;56.87;;;17.63;;
17983;SDS011;9117;52.420;20.728;2022-12-18T05:57:37;56.07;;;18.20;;
17983;SDS011;9117;52.420;20.728;2022-12-18T06:00:05;57.10;;;18.47;;
17983;SDS011;9117;52.420;20.728;2022-12-18T06:02:34;59.83;;;18.73;;
17983;SDS011;9117;52.420;20.728;2022-12-18T06:05:03;59.20;;;16.93;;
17983;SDS011;9117;52.420;20.728;2022-12-18T06:07:31;54.53;;;16.47;;
17983;SDS011;9117;52.420;20.728;2022-12-18T06:09:59;58.17;;;18.57;;
17983;SDS011;9117;52.420;20.728;2022-12-18T06:12:29;60.20;;;18.70;;
17983;SDS011;9117;52.420;20.728;2022-12-18T06:14:57;70.03;;;21.00;;
17983;SDS011;9117;52.420;20.728;2022-12-18T06:17:27;62.77;;;18.03;;
17983;SDS011;9117;52.420;20.728;2022-12-18T06:19:56;74.37;;;18.00;;
17983;SDS011;9117;52.420;20.728;2022-12-18T06:22:24;60.93;;;18.40;;
17983;SDS011;9117;52.420;20.728;2022-12-18T06:24:52;67.33;;;19.00;;
17983;SDS011;9117;52.420;20.728;2022-12-18T06:27:21;68.23;;;19.67;;
17983;SDS011;9117;52.420;20.728;2022-12-18T06:29:50;66.27;;;19.53;;
17983;SDS011;9117;52.420;20.728;2022-12-18T06:32:18;65.10;;;19.93;;
17983;SDS011;9117;52.420;20.728;2022-12-18T06:34:46;64.90;;;20.93;;
17983;SDS011;9117;52.420;20.728;2022-12-18T06:37:14;59.43;;;20.87;;
17983;SDS011;9117;52.420;20.728;2022-12-18T06:39:42;69.67;;;22.37;;
17983;SDS011;9117;52.420;20.728;2022-12-18T06:42:10;88.47;;;23.80;;
17983;SDS011;9117;52.420;20.728;2022-12-18T06:44:38;65.07;;;21.63;;
17983;SDS011;9117;52.420;20.728;2022-12-18T06:47:08;62.43;;;19.77;;
17983;SDS011;9117;52.420;20.728;2022-12-18T06:49:36;66.43;;;18.27;;
17983;SDS011;9117;52.420;20.728;2022-12-18T06:52:04;77.03;;;19.00;;
17983;SDS011;9117;52.420;20.728;2022-12-18T06:54:32;66.30;;;19.20;;
17983;SDS011;9117;52.420;20.728;2022-12-18T06:57:00;67.10;;;18.13;;
17983;SDS011;9117;52.420;20.728;2022-12-18T06:59:28;71.43;;;20.67;;
17983;SDS011;9117;52.420;20.728;2022-12-18T07:01:56;73.40;;;19.97;;
17983;SDS011;9117;52.420;20.728;2022-12-18T07:04:28;79.03;;;21.50;;
17983;SDS011;9117;52.420;20.728;2022-12-18T07:06:56;71.50;;;20.60;;
17983;SDS011;9117;52.420;20.728;2022-12-18T07:09:24;69.27;;;19.57;;
17983;SDS011;9117;52.420;20.728;2022-12-18T07:11:55;75.67;;;19.80;;
17983;SDS011;9117;52.420;20.728;2022-12-18T07:14:24;71.63;;;20.40;;
17983;SDS011;9117;52.420;20.728;2022-12-18T07:16:52;92.80;;;24.33;;
17983;SDS011;9117;52.420;20.728;2022-12-18T07:19:20;67.63;;;21.80;;
17983;SDS011;9117;52.420;20.728;2022-12-18T07:21:50;78.17;;;21.97;;
17983;SDS011;9117;52.420;20.728;2022-12-18T07:24:18;80.17;;;23.07;;
17983;SDS011;9117;52.420;20.728;2022-12-18T07:26:46;86.77;;;23.37;;
17983;SDS011;9117;52.420;20.728;2022-12-18T07:29:15;78.23;;;24.67;;
17983;SDS011;9117;52.420;20.728;2022-12-18T07:31:43;64.67;;;19.73;;
17983;SDS011;9117;52.420;20.728;2022-12-18T07:34:11;72.10;;;21.87;;
17983;SDS011;9117;52.420;20.728;2022-12-18T07:36:39;80.63;;;25.47;;
17983;SDS011;9117;52.420;20.728;2022-12-18T07:39:09;72.87;;;22.50;;
17983;SDS011;9117;52.420;20.728;2022-12-18T07:41:38;71.33;;;21.40;;
17983;SDS011;9117;52.420;20.728;2022-12-18T07:44:12;63.47;;;18.83;;
17983;SDS011;9117;52.420;20.728;2022-12-18T07:46:40;62.23;;;19.33;;
17983;SDS011;9117;52.420;20.728;2022-12-18T07:49:09;78.37;;;20.20;;
17983;SDS011;9117;52.420;20.728;2022-12-18T07:51:37;71.23;;;19.97;;
17983;SDS011;9117;52.420;20.728;2022-12-18T07:54:05;79.57;;;24.33;;
17983;SDS011;9117;52.420;20.728;2022-12-18T07:56:34;80.87;;;24.37;;
17983;SDS011;9117;52.420;20.728;2022-12-18T07:59:02;83.67;;;28.30;;
17983;SDS011;9117;52.420;20.728;2022-12-18T08:01:30;94.73;;;24.50;;
17983;SDS011;9117;52.420;20.728;2022-12-18T08:03:58;76.10;;;21.37;;
17983;SDS011;9117;52.420;20.728;2022-12-18T08:06:26;74.27;;;21.40;;
17983;SDS011;9117;52.420;20.728;2022-12-18T08:08:55;73.33;;;20.77;;
17983;SDS011;9117;52.420;20.728;2022-12-18T08:11:24;80.17;;;24.07;;
17983;SDS011;9117;52.420;20.728;2022-12-18T08:13:54;66.73;;;19.87;;
17983;SDS011;9117;52.420;20.728;2022-12-18T08:16:25;79.93;;;22.87;;
17983;SDS011;9117;52.420;20.728;2022-12-18T08:18:53;73.10;;;21.73;;
17983;SDS011;9117;52.420;20.728;2022-12-18T08:21:23;97.10;;;23.97;;
17983;SDS011;9117;52.420;20.728;2022-12-18T08:23:53;64.00;;;20.30;;
17983;SDS011;9117;52.420;20.728;2022-12-18T08:26:23;78.27;;;20.57;;
17983;SDS011;9117;52.420;20.728;2022-12-18T08:28:55;86.50;;;24.53;;
17983;SDS011;9117;52.420;20.728;2022-12-18T08:31:24;66.40;;;20.37;;
17983;SDS011;9117;52.420;20.728;2022-12-18T08:33:53;84.33;;;22.50;;
17983;SDS011;9117;52.420;20.728;2022-12-18T08:36:22;76.33;;;22.53;;
17983;SDS011;9117;52.420;20.728;2022-12-18T08:38:52;79.20;;;21.63;;
17983;SDS011;9117;52.420;20.728;2022-12-18T08:41:20;83.27;;;24.60;;
17983;SDS011;9117;52.420;20.728;2022-12-18T08:43:48;82.50;;;23.67;;
17983;SDS011;9117;52.420;20.728;2022-12-18T08:46:36;89.43;;;27.73;;
17983;SDS011;9117;52.420;20.728;2022-12-18T08:49:06;96.87;;;24.80;;
17983;SDS011;9117;52.420;20.728;2022-12-18T08:51:35;88.93;;;25.70;;
17983;SDS011;9117;52.420;20.728;2022-12-18T08:54:03;93.17;;;27.40;;
17983;SDS011;9117;52.420;20.728;2022-12-18T08:56:32;85.13;;;23.17;;
17983;SDS011;9117;52.420;20.728;2022-12-18T08:59:00;84.50;;;25.20;;
17983;SDS011;9117;52.420;20.728;2022-12-18T09:01:28;71.63;;;23.00;;
17983;SDS011;9117;52.420;20.728;2022-12-18T09:03:58;69.77;;;21.47;;
17983;SDS011;9117;52.420;20.728;2022-12-18T09:06:26;78.87;;;22.83;;
17983;SDS011;9117;52.420;20.728;2022-12-18T09:08:54;77.93;;;23.20;;
17983;SDS011;9117;52.420;20.728;2022-12-18T09:11:25;73.13;;;21.93;;
17983;SDS011;9117;52.420;20.728;2022-12-18T09:13:55;76.83;;;24.53;;
17983;SDS011;9117;52.420;20.728;2022-12-18T09:16:25;73.90;;;24.30;;
17983;SDS011;9117;52.420;20.728;2022-12-18T09:18:59;78.87;;;25.30;;
17983;SDS011;9117;52.420;20.728;2022-12-18T09:21:28;81.20;;;24.90;;
17983;SDS011;9117;52.420;20.728;2022-12-18T09:24:02;85.37;;;24.10;;
17983;SDS011;9117;52.420;20.728;2022-12-18T09:26:34;77.63;;;25.40;;
17983;SDS011;9117;52.420;20.728;2022-12-18T09:29:02;76.13;;;23.80;;
17983;SDS011;9117;52.420;20.728;2022-12-18T09:31:30;77.33;;;24.57;;
17983;SDS011;9117;52.420;20.728;2022-12-18T09:34:00;72.07;;;22.77;;
17983;SDS011;9117;52.420;20.728;2022-12-18T09:36:28;70.20;;;24.63;;
17983;SDS011;9117;52.420;20.728;2022-12-18T09:38:56;61.47;;;21.60;;
17983;SDS011;9117;52.420;20.728;2022-12-18T09:41:33;73.90;;;23.53;;
17983;SDS011;9117;52.420;20.728;2022-12-18T09:44:12;80.90;;;25.43;;
17983;SDS011;9117;52.420;20.728;2022-12-18T09:46:46;66.83;;;24.07;;
17983;SDS011;9117;52.420;20.728;2022-12-18T09:49:19;71.83;;;24.73;;
17983;SDS011;9117;52.420;20.728;2022-12-18T09:51:52;70.80;;;23.87;;
17983;SDS011;9117;52.420;20.728;2022-12-18T09:54:25;71.70;;;25.10;;
17983;SDS011;9117;52.420;20.728;2022-12-18T09:56:58;81.20;;;24.13;;
17983;SDS011;9117;52.420;20.728;2022-12-18T09:59:37;83.03;;;26.27;;
17983;SDS011;9117;52.420;20.728;2022-12-18T10:02:15;63.83;;;22.70;;
17983;SDS011;9117;52.420;20.728;2022-12-18T10:04:52;71.67;;;23.37;;
17983;SDS011;9117;52.420;20.728;2022-12-18T10:07:37;76.23;;;24.87;;
17983;SDS011;9117;52.420;20.728;2022-12-18T10:10:18;73.10;;;26.17;;
17983;SDS011;9117;52.420;20.728;2022-12-18T10:12:55;75.93;;;28.83;;
17983;SDS011;9117;52.420;20.728;2022-12-18T10:15:31;73.23;;;28.17;;
17983;SDS011;9117;52.420;20.728;2022-12-18T10:18:12;73.40;;;27.20;;
17983;SDS011;9117;52.420;20.728;2022-12-18T10:20:52;70.43;;;23.73;;
17983;SDS011;9117;52.420;20.728;2022-12-18T10:23:25;82.77;;;26.37;;
17983;SDS011;9117;52.420;20.728;2022-12-18T10:25:59;69.47;;;23.93;;
17983;SDS011;9117;52.420;20.728;2022-12-18T10:28:31;66.17;;;25.33;;
17983;SDS011;9117;52.420;20.728;2022-12-18T10:31:01;69.10;;;23.60;;
17983;SDS011;9117;52.420;20.728;2022-12-18T10:33:30;66.20;;;22.90;;
17983;SDS011;9117;52.420;20.728;2022-12-18T10:36:01;70.93;;;22.87;;
17983;SDS011;9117;52.420;20.728;2022-12-18T10:38:30;74.37;;;24.07;;
17983;SDS011;9117;52.420;20.728;2022-12-18T10:41:00;71.70;;;23.93;;
17983;SDS011;9117;52.420;20.728;2022-12-18T10:43:30;61.23;;;21.47;;
17983;SDS011;9117;52.420;20.728;2022-12-18T10:46:00;69.73;;;21.43;;
17983;SDS011;9117;52.420;20.728;2022-12-18T10:48:48;65.00;;;20.47;;
17983;SDS011;9117;52.420;20.728;2022-12-18T10:51:26;66.43;;;21.50;;
17983;SDS011;9117;52.420;20.728;2022-12-18T10:53:57;74.23;;;24.23;;
17983;SDS011;9117;52.420;20.728;2022-12-18T10:56:28;84.40;;;28.03;;
17983;SDS011;9117;52.420;20.728;2022-12-18T10:59:00;74.63;;;24.57;;
17983;SDS011;9117;52.420;20.728;2022-12-18T11:01:33;69.77;;;21.67;;
17983;SDS011;9117;52.420;20.728;2022-12-18T11:04:16;63.27;;;19.93;;
17983;SDS011;9117;52.420;20.728;2022-12-18T11:06:54;66.90;;;20.70;;
17983;SDS011;9117;52.420;20.728;2022-12-18T11:09:25;65.23;;;21.90;;
17983;SDS011;9117;52.420;20.728;2022-12-18T11:11:54;60.20;;;21.03;;
17983;SDS011;9117;52.420;20.728;2022-12-18T11:14:25;56.30;;;21.13;;
17983;SDS011;9117;52.420;20.728;2022-12-18T11:16:55;62.37;;;20.50;;
17983;SDS011;9117;52.420;20.728;2022-12-18T11:19:45;58.07;;;20.83;;
17983;SDS011;9117;52.420;20.728;2022-12-18T11:22:23;61.37;;;19.23;;
17983;SDS011;9117;52.420;20.728;2022-12-18T11:24:55;58.30;;;19.33;;
17983;SDS011;9117;52.420;20.728;2022-12-18T11:27:49;54.70;;;19.43;;
17983;SDS011;9117;52.420;20.728;2022-12-18T11:30:23;53.87;;;19.30;;
17983;SDS011;9117;52.420;20.728;2022-12-18T11:32:54;55.67;;;19.83;;
17983;SDS011;9117;52.420;20.728;2022-12-18T11:35:30;59.57;;;19.57;;
17983;SDS011;9117;52.420;20.728;2022-12-18T11:38:12;58.90;;;19.37;;
17983;SDS011;9117;52.420;20.728;2022-12-18T11:40:47;54.67;;;18.53;;
17983;SDS011;9117;52.420;20.728;2022-12-18T11:43:22;58.47;;;19.63;;
17983;SDS011;9117;52.420;20.728;2022-12-18T11:45:55;64.73;;;21.00;;
17983;SDS011;9117;52.420;20.728;2022-12-18T11:48:28;58.03;;;19.40;;
17983;SDS011;9117;52.420;20.728;2022-12-18T11:51:01;57.93;;;19.80;;
17983;SDS011;9117;52.420;20.728;2022-12-18T11:53:34;58.33;;;20.47;;
17983;SDS011;9117;52.420;20.728;2022-12-18T11:56:07;58.70;;;19.53;;
17983;SDS011;9117;52.420;20.728;2022-12-18T11:58:54;61.00;;;20.67;;
17983;SDS011;9117;52.420;20.728;2022-12-18T12:01:34;62.73;;;21.53;;
17983;SDS011;9117;52.420;20.728;2022-12-18T12:07:12;113.53;;;34.00;;
17983;SDS011;9117;52.420;20.728;2022-12-18T12:09:55;60.60;;;20.77;;
17983;SDS011;9117;52.420;20.728;2022-12-18T12:12:34;56.90;;;21.40;;
17983;SDS011;9117;52.420;20.728;2022-12-18T12:15:21;59.47;;;21.17;;
17983;SDS011;9117;52.420;20.728;2022-12-18T12:17:58;58.60;;;20.10;;
17983;SDS011;9117;52.420;20.728;2022-12-18T12:20:39;65.27;;;20.37;;
17983;SDS011;9117;52.420;20.728;2022-12-18T12:23:19;62.70;;;21.17;;
17983;SDS011;9117;52.420;20.728;2022-12-18T12:25:57;58.07;;;20.07;;
17983;SDS011;9117;52.420;20.728;2022-12-18T12:28:42;63.30;;;21.90;;
17983;SDS011;9117;52.420;20.728;2022-12-18T12:31:50;70.90;;;23.20;;
17983;SDS011;9117;52.420;20.728;2022-12-18T12:34:34;57.80;;;19.77;;
17983;SDS011;9117;52.420;20.728;2022-12-18T12:37:15;56.30;;;19.37;;
17983;SDS011;9117;52.420;20.728;2022-12-18T12:39:51;61.67;;;20.90;;
17983;SDS011;9117;52.420;20.728;2022-12-18T12:42:25;74.37;;;23.40;;
17983;SDS011;9117;52.420;20.728;2022-12-18T12:45:16;70.30;;;21.67;;
17983;SDS011;9117;52.420;20.728;2022-12-18T12:47:49;67.70;;;21.80;;
17983;SDS011;9117;52.420;20.728;2022-12-18T12:50:19;69.37;;;22.80;;
17983;SDS011;9117;52.420;20.728;2022-12-18T12:52:49;60.33;;;22.40;;
17983;SDS011;9117;52.420;20.728;2022-12-18T12:55:21;68.80;;;22.87;;
17983;SDS011;9117;52.420;20.728;2022-12-18T12:57:57;72.37;;;24.67;;
17983;SDS011;9117;52.420;20.728;2022-12-18T13:00:30;68.83;;;23.77;;
17983;SDS011;9117;52.420;20.728;2022-12-18T13:03:08;70.43;;;22.93;;
17983;SDS011;9117;52.420;20.728;2022-12-18T13:05:43;69.43;;;24.03;;
17983;SDS011;9117;52.420;20.728;2022-12-18T13:08:23;63.47;;;22.10;;
17983;SDS011;9117;52.420;20.728;2022-12-18T13:10:53;70.60;;;22.20;;
17983;SDS011;9117;52.420;20.728;2022-12-18T13:13:49;75.70;;;23.33;;
17983;SDS011;9117;52.420;20.728;2022-12-18T13:16:18;66.40;;;22.87;;
17983;SDS011;9117;52.420;20.728;2022-12-18T13:18:48;78.97;;;24.50;;
17983;SDS011;9117;52.420;20.728;2022-12-18T13:21:20;61.80;;;20.13;;
17983;SDS011;9117;52.420;20.728;2022-12-18T13:23:53;66.17;;;21.77;;
17983;SDS011;9117;52.420;20.728;2022-12-18T13:26:31;61.50;;;21.03;;
17983;SDS011;9117;52.420;20.728;2022-12-18T13:29:02;71.53;;;24.20;;
17983;SDS011;9117;52.420;20.728;2022-12-18T13:34:28;62.27;;;22.63;;
17983;SDS011;9117;52.420;20.728;2022-12-18T13:40:00;68.60;;;21.20;;
17983;SDS011;9117;52.420;20.728;2022-12-18T13:42:35;64.97;;;20.97;;
17983;SDS011;9117;52.420;20.728;2022-12-18T13:45:40;72.00;;;21.87;;
17983;SDS011;9117;52.420;20.728;2022-12-18T13:48:22;58.03;;;20.57;;
17983;SDS011;9117;52.420;20.728;2022-12-18T13:50:53;64.77;;;20.43;;
17983;SDS011;9117;52.420;20.728;2022-12-18T13:53:26;70.47;;;21.87;;
17983;SDS011;9117;52.420;20.728;2022-12-18T13:55:57;61.00;;;22.60;;
17983;SDS011;9117;52.420;20.728;2022-12-18T13:58:25;76.73;;;24.17;;
17983;SDS011;9117;52.420;20.728;2022-12-18T14:00:55;65.90;;;21.30;;
17983;SDS011;9117;52.420;20.728;2022-12-18T14:03:26;78.53;;;25.20;;
17983;SDS011;9117;52.420;20.728;2022-12-18T14:05:58;72.80;;;23.87;;
17983;SDS011;9117;52.420;20.728;2022-12-18T14:08:31;78.17;;;24.20;;
17983;SDS011;9117;52.420;20.728;2022-12-18T14:11:03;77.53;;;22.67;;
17983;SDS011;9117;52.420;20.728;2022-12-18T14:13:35;65.40;;;22.63;;
17983;SDS011;9117;52.420;20.728;2022-12-18T14:16:11;72.93;;;24.60;;
17983;SDS011;9117;52.420;20.728;2022-12-18T14:18:43;64.37;;;20.53;;
17983;SDS011;9117;52.420;20.728;2022-12-18T14:21:17;73.57;;;22.23;;
17983;SDS011;9117;52.420;20.728;2022-12-18T14:23:47;72.70;;;22.47;;
17983;SDS011;9117;52.420;20.728;2022-12-18T14:26:22;79.93;;;24.77;;
17983;SDS011;9117;52.420;20.728;2022-12-18T14:28:54;74.73;;;22.20;;
17983;SDS011;9117;52.420;20.728;2022-12-18T14:31:25;74.27;;;23.53;;
17983;SDS011;9117;52.420;20.728;2022-12-18T14:33:55;78.33;;;24.07;;
17983;SDS011;9117;52.420;20.728;2022-12-18T14:36:24;84.70;;;24.70;;
17983;SDS011;9117;52.420;20.728;2022-12-18T14:38:53;87.00;;;26.30;;
17983;SDS011;9117;52.420;20.728;2022-12-18T14:41:23;84.93;;;25.00;;
17983;SDS011;9117;52.420;20.728;2022-12-18T14:43:53;91.47;;;26.33;;
17983;SDS011;9117;52.420;20.728;2022-12-18T14:46:34;79.00;;;24.13;;
17983;SDS011;9117;52.420;20.728;2022-12-18T14:49:04;89.93;;;24.20;;
17983;SDS011;9117;52.420;20.728;2022-12-18T14:51:46;75.60;;;23.57;;
17983;SDS011;9117;52.420;20.728;2022-12-18T14:54:16;74.83;;;23.37;;
17983;SDS011;9117;52.420;20.728;2022-12-18T14:56:46;71.37;;;20.73;;
17983;SDS011;9117;52.420;20.728;2022-12-18T14:59:16;74.80;;;22.10;;
17983;SDS011;9117;52.420;20.728;2022-12-18T15:01:55;96.77;;;24.83;;